Time;durP1;ratioP1;P1;durP2;ratioP2;P2;SDS_P1;SDS_P2;PMS_P1;PMS_P2;Temp;Humidity;BMP_temperature;BMP_pressure;BME280_temperature;BME280_humidity;BME280_pressure;Samples;Min_cycle;Max_cycle;Signal;HPM_P1;HPM_P2
2024/01/12 00:05:53;;;;;;;190.40;175.23;;;0.10;99.90;;;;;;12348855;28;20059;-85
2024/01/12 00:11:56;;;;;;;196.43;180.40;;;0.10;99.90;;;;;;12314052;28;20047;-85
2024/01/12 00:17:58;;;;;;;195.30;179.65;;;0.10;99.90;;;;;;12332788;28;20137;-85
2024/01/12 00:24:01;;;;;;;200.85;183.95;;;0.10;99.90;;;;;;12322339;28;20141;-87
2024/01/12 00:30:04;;;;;;;201.52;184.45;;;0.10;99.90;;;;;;12310812;28;20058;-84
2024/01/12 00:36:06;;;;;;;200.93;184.52;;;0.10;99.90;;;;;;12340448;28;20066;-86
2024/01/12 00:42:08;;;;;;;194.98;179.18;;;0.10;99.90;;;;;;12333248;28;20057;-85
2024/01/12 00:48:11;;;;;;;200.95;184.57;;;0.10;99.90;;;;;;12331902;28;20047;-85
2024/01/12 00:54:14;;;;;;;202.13;186.40;;;0.20;99.90;;;;;;12332403;28;20134;-85
2024/01/12 01:00:17;;;;;;;203.02;186.40;;;0.10;99.90;;;;;;12318964;28;20144;-85
2024/01/12 01:06:18;;;;;;;204.43;187.65;;;0.20;99.90;;;;;;12337180;28;20051;-85
2024/01/12 01:12:21;;;;;;;206.23;189.50;;;0.10;99.90;;;;;;12333868;28;20050;-86
2024/01/12 01:18:23;;;;;;;201.90;185.68;;;0.10;99.90;;;;;;12332140;28;20070;-85
2024/01/12 01:24:28;;;;;;;196.18;181.05;;;0.20;99.90;;;;;;12327804;28;20050;-85
2024/01/12 01:30:30;;;;;;;190.95;175.73;;;0.10;99.90;;;;;;12323621;28;20483;-87
2024/01/12 01:36:32;;;;;;;200.75;183.70;;;0.10;99.90;;;;;;12402946;28;20069;-85
2024/01/12 01:42:35;;;;;;;206.00;189.15;;;0.10;99.90;;;;;;12352276;28;20448;-85
2024/01/12 01:48:37;;;;;;;190.20;174.35;;;0.30;99.90;;;;;;12344388;28;20403;-85
2024/01/12 01:54:39;;;;;;;193.93;178.07;;;0.20;99.90;;;;;;12329511;28;20051;-86
2024/01/12 02:00:41;;;;;;;190.65;175.43;;;0.20;99.90;;;;;;12330727;28;20062;-85
2024/01/12 02:06:43;;;;;;;185.05;170.10;;;0.20;99.90;;;;;;12336437;28;20055;-86
2024/01/12 02:12:45;;;;;;;192.45;177.18;;;0.20;99.90;;;;;;12358943;28;20058;-85
2024/01/12 02:18:47;;;;;;;192.10;176.63;;;0.10;99.90;;;;;;12331986;28;20058;-85
2024/01/12 02:24:50;;;;;;;185.20;170.55;;;0.10;99.90;;;;;;12388695;28;20054;-86
2024/01/12 02:30:52;;;;;;;192.15;177.95;;;0.10;99.90;;;;;;12343161;28;20053;-85
2024/01/12 02:36:54;;;;;;;191.02;176.48;;;0.20;99.90;;;;;;12379807;28;20142;-86
2024/01/12 02:42:56;;;;;;;188.18;173.40;;;0.30;99.90;;;;;;12332106;28;20043;-85
2024/01/12 02:48:58;;;;;;;198.02;183.80;;;0.20;99.90;;;;;;12338020;28;20043;-86
2024/01/12 02:55:00;;;;;;;191.18;177.48;;;0.20;99.90;;;;;;12326619;28;20051;-86
2024/01/12 03:01:02;;;;;;;202.05;188.05;;;0.20;99.90;;;;;;12333526;28;20142;-86
2024/01/12 03:07:04;;;;;;;199.20;185.25;;;0.10;99.90;;;;;;12325640;28;20084;-86
2024/01/12 03:13:06;;;;;;;190.43;177.05;;;0.20;99.90;;;;;;12342502;28;20055;-86
2024/01/12 03:19:08;;;;;;;199.30;185.27;;;0.20;99.90;;;;;;12345512;28;20054;-86
2024/01/12 03:25:10;;;;;;;203.23;189.23;;;0.30;99.90;;;;;;12362392;28;20192;-85
2024/01/12 03:31:12;;;;;;;212.00;197.63;;;0.30;99.90;;;;;;12369138;28;20054;-85
2024/01/12 03:37:16;;;;;;;208.02;193.10;;;0.30;99.90;;;;;;12376165;28;20111;-86
2024/01/12 03:43:18;;;;;;;209.70;195.52;;;0.30;99.90;;;;;;12354146;28;20063;-86
2024/01/12 03:49:22;;;;;;;199.73;186.05;;;0.30;99.90;;;;;;12424467;28;20051;-86
2024/01/12 03:55:24;;;;;;;204.85;190.52;;;0.30;99.90;;;;;;12366790;28;20051;-85
2024/01/12 04:01:26;;;;;;;212.65;198.05;;;0.40;99.90;;;;;;12327856;28;20050;-86
2024/01/12 04:07:28;;;;;;;218.73;203.80;;;0.40;99.90;;;;;;12353153;28;20157;-86
2024/01/12 04:13:29;;;;;;;223.57;209.00;;;0.40;99.90;;;;;;12348665;28;20039;-86
2024/01/12 04:19:31;;;;;;;215.95;200.73;;;0.40;99.90;;;;;;12334693;28;20055;-85
2024/01/12 04:25:33;;;;;;;213.88;199.18;;;0.30;99.90;;;;;;12332775;28;20056;-86
2024/01/12 04:31:40;;;;;;;219.15;204.32;;;0.40;99.90;;;;;;12354284;28;20062;-85
2024/01/12 04:37:42;;;;;;;214.90;200.57;;;0.40;99.90;;;;;;12359250;28;20061;-87
2024/01/12 04:43:44;;;;;;;219.15;204.00;;;0.40;99.90;;;;;;12355075;28;20057;-86
2024/01/12 04:49:45;;;;;;;218.55;202.45;;;0.40;99.90;;;;;;12337051;28;20039;-86
2024/01/12 04:55:48;;;;;;;216.70;201.98;;;0.50;99.90;;;;;;12329977;28;20086;-87
2024/01/12 05:01:50;;;;;;;220.88;205.18;;;0.50;99.90;;;;;;12339194;28;20050;-86
2024/01/12 05:07:52;;;;;;;207.38;192.57;;;0.50;99.90;;;;;;12342803;28;20110;-86
2024/01/12 05:13:54;;;;;;;203.55;189.20;;;0.40;99.90;;;;;;12335898;28;20102;-86
2024/01/12 05:19:58;;;;;;;201.27;186.55;;;0.50;99.90;;;;;;12336658;28;20062;-87
2024/01/12 05:26:00;;;;;;;201.65;187.27;;;0.50;99.90;;;;;;12350734;28;20054;-86
2024/01/12 05:32:02;;;;;;;206.27;191.15;;;0.50;99.90;;;;;;12362836;28;20043;-87
2024/01/12 05:38:04;;;;;;;210.32;194.68;;;0.60;99.90;;;;;;12339602;28;20075;-86
2024/01/12 05:44:06;;;;;;;196.98;182.10;;;0.60;99.90;;;;;;12333380;28;20055;-87
2024/01/12 05:50:08;;;;;;;191.02;176.82;;;0.50;99.90;;;;;;12345120;28;20418;-87
2024/01/12 05:56:10;;;;;;;187.82;173.80;;;0.60;99.90;;;;;;12338739;28;20055;-88
2024/01/12 06:02:15;;;;;;;194.07;179.68;;;0.50;99.90;;;;;;12325089;28;20557;-87
2024/01/12 06:08:17;;;;;;;196.13;181.32;;;0.40;99.90;;;;;;12342130;28;20067;-86
2024/01/12 06:14:19;;;;;;;201.70;186.77;;;0.50;99.90;;;;;;12335608;28;20054;-87
2024/01/12 06:20:21;;;;;;;198.25;183.40;;;0.50;99.90;;;;;;12340544;28;20165;-86
2024/01/12 06:26:23;;;;;;;189.02;174.80;;;0.60;99.90;;;;;;12324972;28;20169;-87
2024/01/12 06:32:25;;;;;;;184.20;170.15;;;0.60;99.90;;;;;;12398817;28;20047;-88
2024/01/12 06:38:27;;;;;;;176.00;162.25;;;0.60;99.90;;;;;;12355716;28;20068;-86
2024/01/12 06:44:29;;;;;;;179.10;165.93;;;0.60;99.90;;;;;;12388213;28;20047;-86
2024/01/12 06:50:31;;;;;;;170.45;157.73;;;0.60;99.90;;;;;;12366192;28;20031;-88
2024/01/12 06:56:37;;;;;;;176.52;163.13;;;0.60;99.90;;;;;;12338010;28;20031;-87
2024/01/12 07:02:39;;;;;;;173.40;159.90;;;0.50;99.90;;;;;;12363611;28;20055;-88
2024/01/12 07:08:41;;;;;;;174.82;161.82;;;0.50;99.90;;;;;;12373529;28;20066;-87
2024/01/12 07:14:43;;;;;;;166.90;154.50;;;0.50;99.90;;;;;;12372389;28;20588;-87
2024/01/12 07:20:45;;;;;;;166.68;153.80;;;0.50;99.90;;;;;;12360197;23;20447;-35
2024/01/12 07:26:47;;;;;;;167.35;154.65;;;0.60;99.90;;;;;;12377537;28;20461;-34
2024/01/12 07:32:51;;;;;;;167.10;155.25;;;0.50;99.90;;;;;;12372110;28;20050;-35
2024/01/12 07:38:57;;;;;;;173.90;161.45;;;0.50;99.90;;;;;;12376367;28;20129;-35
2024/01/12 07:44:59;;;;;;;182.50;169.10;;;0.50;99.90;;;;;;12373576;28;20153;-34
2024/01/12 07:51:01;;;;;;;175.43;162.30;;;0.60;99.90;;;;;;12371051;28;20046;-35
2024/01/12 07:57:03;;;;;;;171.38;158.13;;;0.60;99.90;;;;;;12372871;28;20057;-35
2024/01/12 08:03:05;;;;;;;183.20;169.70;;;0.60;99.90;;;;;;12375692;28;20448;-36
2024/01/12 08:09:09;;;;;;;184.57;170.98;;;0.50;99.90;;;;;;12388209;28;20044;-36
2024/01/12 08:15:11;;;;;;;194.95;181.50;;;0.50;99.90;;;;;;12376882;28;20051;-36
2024/01/12 08:21:13;;;;;;;187.15;174.10;;;0.50;99.90;;;;;;12351892;28;20878;-36
2024/01/12 08:27:15;;;;;;;193.93;180.77;;;0.60;99.90;;;;;;12424561;28;20047;-36
2024/01/12 08:33:20;;;;;;;178.85;166.05;;;0.60;99.90;;;;;;12405592;28;20074;-37
2024/01/12 08:39:22;;;;;;;191.73;178.25;;;0.60;99.90;;;;;;12376887;28;20050;-36
2024/01/12 08:45:24;;;;;;;181.10;168.07;;;0.60;99.90;;;;;;12370557;28;20137;-36
2024/01/12 08:51:26;;;;;;;175.15;162.82;;;0.60;99.90;;;;;;12355402;28;20049;-36
2024/01/12 08:57:28;;;;;;;164.98;153.43;;;0.60;99.90;;;;;;12366576;28;20046;-36
2024/01/12 09:03:30;;;;;;;177.82;165.15;;;0.60;99.90;;;;;;12373328;28;20080;-36
2024/01/12 09:09:32;;;;;;;164.65;152.77;;;0.60;99.90;;;;;;12371663;28;20451;-35
2024/01/12 09:15:34;;;;;;;166.15;154.23;;;0.70;99.90;;;;;;12378094;28;20054;-35
2024/01/12 09:21:38;;;;;;;159.57;148.23;;;0.60;99.90;;;;;;12376786;28;20057;-36
2024/01/12 09:27:40;;;;;;;165.82;153.73;;;0.70;99.90;;;;;;12375367;28;20482;-36
2024/01/12 09:33:42;;;;;;;154.82;143.68;;;0.70;99.90;;;;;;12405050;28;20043;-36
2024/01/12 09:39:44;;;;;;;162.57;151.15;;;0.60;99.90;;;;;;12410176;28;20107;-36
2024/01/12 09:45:50;;;;;;;161.30;150.02;;;0.70;99.90;;;;;;12385700;28;20433;-36
2024/01/12 09:51:52;;;;;;;166.30;154.23;;;0.70;99.90;;;;;;12368063;28;20050;-36
2024/01/12 09:57:55;;;;;;;161.73;150.15;;;0.70;99.90;;;;;;12362976;28;20058;-36
2024/01/12 10:03:58;;;;;;;159.65;148.52;;;0.70;99.90;;;;;;12411698;28;20511;-36
2024/01/12 10:10:00;;;;;;;164.07;152.73;;;0.70;99.90;;;;;;12413469;28;20046;-36
2024/01/12 10:16:02;;;;;;;173.85;161.23;;;0.70;99.90;;;;;;12368503;28;20058;-35
2024/01/12 10:22:04;;;;;;;179.90;166.65;;;0.80;99.90;;;;;;12385366;28;20050;-36
2024/01/12 10:28:07;;;;;;;171.15;158.68;;;0.80;99.90;;;;;;12381390;28;20674;-36
2024/01/12 10:34:12;;;;;;;178.90;165.45;;;0.80;99.90;;;;;;12405683;28;20050;-36
2024/01/12 10:40:18;;;;;;;169.32;156.95;;;0.80;99.90;;;;;;12380227;28;20062;-36
2024/01/12 10:46:59;;;;;;;169.07;156.63;;;0.70;99.90;;;;;;12374960;28;20065;-36
2024/01/12 10:53:08;;;;;;;158.63;146.45;;;0.70;99.90;;;;;;12374373;28;20046;-36
2024/01/12 10:59:11;;;;;;;177.88;164.18;;;0.70;99.90;;;;;;12379597;28;20065;-35
2024/01/12 11:05:14;;;;;;;171.93;158.63;;;0.80;99.90;;;;;;12370148;28;20107;-36
2024/01/12 11:11:20;;;;;;;180.02;167.55;;;0.80;99.90;;;;;;12388819;28;20094;-36
2024/01/12 11:17:30;;;;;;;176.00;162.80;;;0.80;99.90;;;;;;12378855;28;20441;-35
2024/01/12 11:23:42;;;;;;;168.10;156.00;;;1.00;99.90;;;;;;12380558;28;20118;-36
2024/01/12 11:29:44;;;;;;;150.20;139.32;;;1.00;99.90;;;;;;12382505;28;20061;-34
2024/01/12 11:35:51;;;;;;;152.13;140.90;;;1.00;99.90;;;;;;12391925;28;20042;-36
2024/01/12 11:41:56;;;;;;;145.82;135.02;;;0.90;99.90;;;;;;12405581;28;20061;-36
2024/01/12 11:48:01;;;;;;;;;;;1.00;99.90;;;;;;12392398;28;20703;-35
2024/01/12 11:54:03;;;;;;;178.38;165.02;;;0.90;99.90;;;;;;12388696;28;19925;-34
2024/01/12 12:00:06;;;;;;;173.00;159.57;;;0.90;99.90;;;;;;12375919;28;20125;-35
2024/01/12 12:06:13;;;;;;;163.43;151.88;;;0.80;99.90;;;;;;12371503;28;20054;-35
2024/01/12 12:12:15;;;;;;;175.98;162.95;;;0.70;99.90;;;;;;12378472;28;20057;-36
2024/01/12 12:18:18;;;;;;;178.45;165.77;;;0.70;99.90;;;;;;12400463;22;20058;-35
2024/01/12 12:24:21;;;;;;;167.98;156.30;;;0.70;99.90;;;;;;12365429;28;20050;-35
2024/01/12 12:30:27;;;;;;;166.38;154.95;;;0.50;99.90;;;;;;12345347;28;20035;-35
2024/01/12 12:36:30;;;;;;;167.80;156.10;;;0.60;99.90;;;;;;12376990;28;20050;-35
2024/01/12 12:42:32;;;;;;;172.00;159.75;;;0.60;99.90;;;;;;12393803;28;20050;-35
2024/01/12 12:48:34;;;;;;;164.65;153.45;;;0.70;99.90;;;;;;12371200;28;20058;-35
2024/01/12 12:54:37;;;;;;;161.77;150.93;;;0.70;99.90;;;;;;12376296;28;20484;-35
2024/01/12 13:00:38;;;;;;;162.50;151.60;;;0.70;99.90;;;;;;12382812;28;20061;-35
2024/01/12 13:06:42;;;;;;;151.25;141.40;;;0.70;99.90;;;;;;12362346;28;20066;-35
2024/01/12 13:12:44;;;;;;;161.27;150.30;;;0.80;99.90;;;;;;12365160;28;20054;-34
2024/01/12 13:18:47;;;;;;;162.40;151.75;;;0.80;99.90;;;;;;12380257;28;20055;-35
2024/01/12 13:24:49;;;;;;;150.30;140.23;;;0.70;99.90;;;;;;12349377;28;20062;-35
2024/01/12 13:30:51;;;;;;;147.23;137.70;;;0.80;99.90;;;;;;12345620;28;20474;-34
2024/01/12 13:36:53;;;;;;;153.57;143.48;;;0.80;99.90;;;;;;12371303;28;20047;-34
2024/01/12 13:42:55;;;;;;;159.13;148.77;;;0.70;99.90;;;;;;12383639;28;20061;-35
2024/01/12 13:48:57;;;;;;;151.05;141.30;;;0.70;99.90;;;;;;12358990;28;20055;-34
2024/01/12 13:54:59;;;;;;;159.57;149.10;;;0.70;99.90;;;;;;12357735;28;20173;-35
2024/01/12 14:01:01;;;;;;;163.48;152.52;;;0.80;99.90;;;;;;12359919;28;20454;-35
2024/01/12 14:07:03;;;;;;;154.73;144.57;;;0.80;99.90;;;;;;12369670;28;20141;-33
2024/01/12 14:13:05;;;;;;;167.07;155.73;;;0.70;99.90;;;;;;12358959;28;20051;-35
2024/01/12 14:19:07;;;;;;;158.93;148.30;;;0.70;99.90;;;;;;12362190;28;20065;-34
2024/01/12 14:25:09;;;;;;;170.63;159.38;;;0.70;99.90;;;;;;12344784;28;20230;-35
2024/01/12 14:31:11;;;;;;;185.60;173.48;;;0.70;99.90;;;;;;12391702;28;20050;-35
2024/01/12 14:37:15;;;;;;;181.45;169.25;;;0.80;99.90;;;;;;12366327;28;20161;-35
2024/01/12 14:43:17;;;;;;;184.38;172.43;;;0.80;99.90;;;;;;12426146;28;20775;-35
2024/01/12 14:49:19;;;;;;;185.70;173.40;;;0.70;99.90;;;;;;12377227;28;20042;-34
2024/01/12 14:55:21;;;;;;;181.35;169.85;;;0.70;99.90;;;;;;12365065;28;20065;-35
2024/01/12 15:01:23;;;;;;;182.75;171.32;;;0.70;99.90;;;;;;12359927;28;20047;-35
2024/01/12 15:07:26;;;;;;;180.05;168.65;;;0.60;99.90;;;;;;12353946;28;20401;-35
2024/01/12 15:13:28;;;;;;;177.98;166.75;;;0.60;99.90;;;;;;12376528;28;20179;-35
2024/01/12 15:19:30;;;;;;;163.02;152.02;;;0.60;99.90;;;;;;12356040;28;20450;-35
2024/01/12 15:25:33;;;;;;;170.50;159.20;;;0.60;99.90;;;;;;12391092;28;20050;-35
2024/01/12 15:31:35;;;;;;;169.85;158.57;;;0.60;99.90;;;;;;12406745;28;20050;-35
2024/01/12 15:37:40;;;;;;;170.60;159.23;;;0.70;99.90;;;;;;12351199;28;20050;-34
2024/01/12 15:43:42;;;;;;;175.82;164.02;;;0.70;99.90;;;;;;12406290;28;20095;-34
2024/01/12 15:49:43;;;;;;;172.00;160.52;;;0.80;99.90;;;;;;12349830;28;20487;-35
2024/01/12 15:55:47;;;;;;;161.30;150.55;;;0.80;99.90;;;;;;12343792;28;20483;-34
2024/01/12 16:01:49;;;;;;;188.40;175.88;;;0.70;99.90;;;;;;12333809;28;20549;-35
2024/01/12 16:07:53;;;;;;;178.75;166.65;;;0.80;99.90;;;;;;12368401;28;20046;-35
2024/01/12 16:13:55;;;;;;;176.80;164.88;;;0.80;99.90;;;;;;12356105;28;20038;-33
2024/01/12 16:19:57;;;;;;;180.45;168.38;;;0.80;99.90;;;;;;12360353;28;20050;-35
2024/01/12 16:25:59;;;;;;;193.50;180.43;;;0.80;99.90;;;;;;12347510;28;20058;-35
2024/01/12 16:32:01;;;;;;;191.27;177.77;;;0.80;99.90;;;;;;12399229;28;20115;-35
2024/01/12 16:38:03;;;;;;;191.15;178.05;;;0.80;99.90;;;;;;12371523;28;20051;-35
2024/01/12 16:44:05;;;;;;;175.35;163.45;;;0.90;99.90;;;;;;12375243;28;20176;-35
2024/01/12 16:50:07;;;;;;;176.48;163.63;;;0.80;99.90;;;;;;12338358;28;20543;-35
2024/01/12 16:56:09;;;;;;;180.52;168.60;;;0.80;99.90;;;;;;12339785;28;20051;-34
2024/01/12 17:02:11;;;;;;;175.50;163.45;;;0.90;99.90;;;;;;12346304;28;20057;-35
2024/01/12 17:08:13;;;;;;;178.73;167.07;;;0.90;99.90;;;;;;12366244;28;20612;-35
2024/01/12 17:14:15;;;;;;;172.88;160.48;;;0.90;99.90;;;;;;12364263;28;20093;-34
2024/01/12 17:20:17;;;;;;;178.75;166.30;;;0.80;99.90;;;;;;12389590;28;20085;-35
2024/01/12 17:26:19;;;;;;;162.93;151.63;;;0.90;99.90;;;;;;12377320;28;20062;-34
2024/01/12 17:32:25;;;;;;;209.88;196.13;;;0.80;99.90;;;;;;12382412;28;20515;-34
2024/01/12 17:38:28;;;;;;;210.10;196.32;;;1.00;99.90;;;;;;12363302;28;20043;-35
2024/01/12 17:44:29;;;;;;;209.48;195.38;;;0.90;99.90;;;;;;12369816;28;20054;-35
2024/01/12 17:50:31;;;;;;;209.50;194.98;;;0.90;99.90;;;;;;12346956;28;20061;-35
2024/01/12 17:56:37;;;;;;;;;;;1.00;99.90;;;;;;12350478;28;20042;-35
2024/01/12 18:02:39;;;;;;;200.57;187.05;;;0.90;99.90;;;;;;12346029;28;19967;-35
2024/01/12 18:08:41;;;;;;;206.43;192.63;;;0.90;99.90;;;;;;12357328;28;20047;-35
2024/01/12 18:14:44;;;;;;;197.13;183.35;;;0.90;99.90;;;;;;12357041;28;20085;-35
2024/01/12 18:20:46;;;;;;;211.05;196.48;;;0.90;99.90;;;;;;12353719;28;20070;-33
2024/01/12 18:26:48;;;;;;;192.95;179.77;;;0.90;99.90;;;;;;12369324;28;20088;-35
2024/01/12 18:32:50;;;;;;;194.13;180.57;;;0.90;99.90;;;;;;12344993;28;20053;-35
2024/01/12 18:38:52;;;;;;;205.15;190.27;;;1.00;99.90;;;;;;12357479;28;20478;-35
2024/01/12 18:44:54;;;;;;;209.13;194.48;;;0.90;99.90;;;;;;12379872;28;20042;-34
2024/01/12 18:50:56;;;;;;;202.68;189.23;;;1.00;99.90;;;;;;12358515;28;20081;-34
2024/01/12 18:56:58;;;;;;;205.05;190.73;;;1.00;99.90;;;;;;12361946;28;20042;-35
2024/01/12 19:03:04;;;;;;;199.80;185.65;;;0.90;99.90;;;;;;12356797;28;20180;-35
2024/01/12 19:09:07;;;;;;;201.75;187.80;;;1.00;99.90;;;;;;12382226;28;20173;-35
2024/01/12 19:15:09;;;;;;;214.65;200.05;;;1.10;99.90;;;;;;12409944;28;20046;-35
2024/01/12 19:21:11;;;;;;;208.85;194.63;;;1.10;99.90;;;;;;12364129;28;20066;-35
2024/01/12 19:27:13;;;;;;;210.15;195.77;;;1.10;99.90;;;;;;12373756;28;20061;-35
2024/01/12 19:33:16;;;;;;;217.30;202.55;;;1.20;99.90;;;;;;12359003;28;20058;-35
2024/01/12 19:39:18;;;;;;;210.27;195.95;;;1.20;99.90;;;;;;12361350;28;20077;-36
2024/01/12 19:45:20;;;;;;;222.27;207.13;;;1.30;99.90;;;;;;12395242;28;20430;-35
2024/01/12 19:51:23;;;;;;;226.32;210.73;;;1.20;99.90;;;;;;12363528;28;20039;-36
2024/01/12 19:57:26;;;;;;;226.38;211.18;;;1.30;99.90;;;;;;12357851;28;20184;-36
2024/01/12 20:03:29;;;;;;;236.00;219.98;;;1.30;99.90;;;;;;12357692;28;20562;-35
2024/01/12 20:09:31;;;;;;;240.00;223.98;;;1.40;99.90;;;;;;12358649;28;20046;-35
2024/01/12 20:15:33;;;;;;;232.77;216.82;;;1.40;99.90;;;;;;12418322;28;20043;-34
2024/01/12 20:21:35;;;;;;;238.48;222.13;;;1.40;99.90;;;;;;12361701;28;20058;-35
2024/01/12 20:27:37;;;;;;;232.90;217.05;;;1.40;99.90;;;;;;12340506;28;20051;-35
2024/01/12 20:33:40;;;;;;;254.10;236.32;;;1.40;99.90;;;;;;12386959;28;20050;-34
2024/01/12 20:39:43;;;;;;;247.88;230.52;;;1.60;99.90;;;;;;12355870;28;20057;-35
2024/01/12 20:45:44;;;;;;;256.70;239.10;;;1.50;99.90;;;;;;12361281;28;20426;-34
2024/01/12 20:51:46;;;;;;;270.60;252.15;;;1.60;99.90;;;;;;12352270;28;20566;-35
2024/01/12 20:57:48;;;;;;;264.70;247.05;;;1.60;99.90;;;;;;12364487;28;20141;-35
2024/01/12 21:03:50;;;;;;;276.45;257.63;;;1.60;99.90;;;;;;12345015;28;20596;-35
2024/01/12 21:09:52;;;;;;;274.70;256.02;;;1.60;99.90;;;;;;12365617;28;20050;-35
2024/01/12 21:15:54;;;;;;;272.10;253.93;;;1.60;99.90;;;;;;12397282;28;20418;-35
2024/01/12 21:21:56;;;;;;;279.55;260.70;;;1.60;99.90;;;;;;12356938;28;20051;-35
2024/01/12 21:27:58;;;;;;;279.98;260.98;;;1.70;99.90;;;;;;12356534;28;20054;-35
2024/01/12 21:34:00;;;;;;;297.60;278.15;;;1.70;99.90;;;;;;12398985;28;20042;-35
2024/01/12 21:40:03;;;;;;;300.77;280.63;;;1.70;99.90;;;;;;12367301;28;20051;-35
2024/01/12 21:46:05;;;;;;;292.00;272.23;;;1.70;99.90;;;;;;12338226;28;20133;-35
2024/01/12 21:52:07;;;;;;;288.58;268.75;;;1.70;99.90;;;;;;12358902;28;20046;-35
2024/01/12 21:58:09;;;;;;;293.38;273.73;;;1.70;99.90;;;;;;12336657;28;20406;-35
2024/01/12 22:04:11;;;;;;;303.55;282.60;;;1.70;99.90;;;;;;12367749;28;20136;-35
2024/01/12 22:10:13;;;;;;;320.23;298.20;;;1.70;99.90;;;;;;12376070;28;20081;-35
2024/01/12 22:16:15;;;;;;;308.17;287.35;;;1.70;99.90;;;;;;12360940;28;20045;-35
2024/01/12 22:22:17;;;;;;;340.30;316.92;;;1.70;99.90;;;;;;12373554;28;20062;-35
2024/01/12 22:28:20;;;;;;;319.35;297.73;;;1.80;99.90;;;;;;12352658;28;20074;-35
2024/01/12 22:34:21;;;;;;;315.88;294.77;;;1.70;99.90;;;;;;12394288;28;20047;-35
2024/01/12 22:40:23;;;;;;;316.90;295.55;;;1.60;99.90;;;;;;12418001;28;20052;-36
2024/01/12 22:46:25;;;;;;;321.25;299.65;;;1.70;99.90;;;;;;12362988;28;20058;-35
2024/01/12 22:52:27;;;;;;;314.13;292.90;;;1.70;99.90;;;;;;12368558;28;20054;-35
2024/01/12 22:58:29;;;;;;;322.73;300.60;;;1.70;99.90;;;;;;12361561;28;20197;-35
2024/01/12 23:04:31;;;;;;;319.08;298.08;;;1.70;99.90;;;;;;12346564;28;20061;-36
2024/01/12 23:10:33;;;;;;;324.77;303.35;;;1.70;99.90;;;;;;12359739;28;20047;-36
2024/01/12 23:16:35;;;;;;;319.98;298.52;;;1.80;99.90;;;;;;12364260;28;20046;-36
2024/01/12 23:22:38;;;;;;;300.63;280.35;;;1.80;99.90;;;;;;12365799;28;20093;-36
2024/01/12 23:28:40;;;;;;;324.75;303.33;;;1.80;99.90;;;;;;12344315;28;20086;-36
2024/01/12 23:34:42;;;;;;;320.65;299.23;;;1.80;99.90;;;;;;12357052;28;20070;-35
2024/01/12 23:40:44;;;;;;;303.40;283.10;;;1.80;99.90;;;;;;12376322;28;20482;-36
2024/01/12 23:46:46;;;;;;;304.17;283.73;;;1.70;99.90;;;;;;12359600;28;20062;-35
2024/01/12 23:52:48;;;;;;;313.38;292.08;;;1.70;99.90;;;;;;12369196;28;20054;-35
2024/01/12 23:58:50;;;;;;;299.25;279.10;;;1.70;99.90;;;;;;12351436;28;20101;-35
